createdAt,value
2018-09-27T00:01:41.170Z,101739.43
2018-09-27T00:04:10.052Z,101736.11
2018-09-27T00:06:38.918Z,101730.25
2018-09-27T00:09:08.448Z,101734.22
2018-09-27T00:11:37.254Z,101736.50
2018-09-27T00:14:06.092Z,101734.97
2018-09-27T00:16:34.873Z,101736.45
2018-09-27T00:19:03.659Z,101733.99
2018-09-27T00:21:32.494Z,101733.99
2018-09-27T00:24:01.655Z,101737.41
2018-09-27T00:26:31.095Z,101735.87
2018-09-27T00:28:59.914Z,101726.01
2018-09-27T00:31:28.780Z,101726.92
2018-09-27T00:33:57.651Z,101717.69
2018-09-27T00:36:26.561Z,101722.86
2018-09-27T00:38:55.340Z,101717.66
2018-09-27T00:41:24.310Z,101702.91
2018-09-27T00:43:53.217Z,101703.91
2018-09-27T00:46:22.061Z,101705.59
2018-09-27T00:48:50.859Z,101698.63
2018-09-27T00:51:19.701Z,101689.55
2018-09-27T00:53:48.460Z,101693.43
2018-09-27T00:56:17.216Z,101689.05
2018-09-27T00:58:45.967Z,101688.69
2018-09-27T01:01:15.143Z,101694.01
2018-09-27T01:03:44.016Z,101688.73
2018-09-27T01:06:13.837Z,101690.95
2018-09-27T01:08:42.690Z,101694.77
2018-09-27T01:11:11.535Z,101707.83
2018-09-27T01:13:40.394Z,101704.95
2018-09-27T01:16:09.196Z,101694.44
2018-09-27T01:18:38.023Z,101684.41
2018-09-27T01:21:06.987Z,101687.06
2018-09-27T01:23:35.871Z,101686.23
2018-09-27T01:26:04.656Z,101683.74
2018-09-27T01:28:33.571Z,101669.00
2018-09-27T01:31:02.720Z,101664.86
2018-09-27T01:33:31.552Z,101662.20
2018-09-27T01:36:00.346Z,101667.98
2018-09-27T01:38:29.240Z,101672.89
2018-09-27T01:40:58.131Z,101666.72
2018-09-27T01:43:27.221Z,101670.23
2018-09-27T01:45:56.117Z,101674.58
2018-09-27T01:48:25.317Z,101668.16
2018-09-27T01:50:54.139Z,101674.86
2018-09-27T01:53:22.977Z,101682.28
2018-09-27T01:55:52.122Z,101670.13
2018-09-27T01:58:20.910Z,101672.34
2018-09-27T02:00:49.746Z,101672.20
2018-09-27T02:03:19.971Z,101667.25
2018-09-27T02:05:48.854Z,101670.27
2018-09-27T02:08:17.709Z,101677.83
2018-09-27T02:10:46.643Z,101679.80
2018-09-27T02:13:15.510Z,101683.37
2018-09-27T02:15:44.312Z,101673.62
2018-09-27T02:18:13.160Z,101675.00
2018-09-27T02:20:41.990Z,101675.80
2018-09-27T02:23:11.569Z,101669.85
2018-09-27T02:25:40.382Z,101671.98
2018-09-27T02:28:09.247Z,101667.48
2018-09-27T02:30:39.370Z,101667.83
2018-09-27T02:33:08.260Z,101667.77
2018-09-27T02:35:37.245Z,101674.11
2018-09-27T02:38:06.031Z,101663.81
2018-09-27T02:40:34.866Z,101671.39
2018-09-27T02:43:03.655Z,101673.25
2018-09-27T02:45:32.468Z,101677.23
2018-09-27T02:48:01.283Z,101671.09
2018-09-27T02:50:30.212Z,101671.28
2018-09-27T02:52:59.073Z,101672.36
2018-09-27T02:55:27.937Z,101676.64
2018-09-27T02:57:56.695Z,101680.74
2018-09-27T03:00:25.559Z,101676.22
2018-09-27T03:02:54.391Z,101675.69
2018-09-27T03:05:23.274Z,101676.66
2018-09-27T03:07:52.133Z,101678.75
2018-09-27T03:10:20.962Z,101673.87
2018-09-27T03:12:49.787Z,101676.56
2018-09-27T03:15:18.632Z,101676.20
2018-09-27T03:17:47.432Z,101680.59
2018-09-27T03:20:16.260Z,101679.47
2018-09-27T03:22:45.170Z,101671.11
2018-09-27T03:25:14.005Z,101670.97
2018-09-27T03:27:42.848Z,101675.09
2018-09-27T03:30:11.661Z,101670.75
2018-09-27T03:32:40.502Z,101673.16
2018-09-27T03:35:09.363Z,101665.86
2018-09-27T03:37:38.251Z,101656.69
2018-09-27T03:40:11.111Z,101656.42
2018-09-27T03:42:39.939Z,101657.25
2018-09-27T03:45:08.915Z,101654.19
2018-09-27T03:47:38.261Z,101647.20
2018-09-27T03:50:07.142Z,101646.87
2018-09-27T03:52:35.910Z,101643.79
2018-09-27T03:55:04.834Z,101639.45
2018-09-27T03:57:33.643Z,101639.22
2018-09-27T04:00:02.385Z,101641.42
2018-09-27T04:02:31.212Z,101635.91
2018-09-27T04:05:00.027Z,101632.63
2018-09-27T04:07:28.857Z,101632.75
2018-09-27T04:09:57.726Z,101640.19
2018-09-27T04:12:26.585Z,101635.61
2018-09-27T04:14:56.179Z,101641.29
2018-09-27T04:17:25.265Z,101634.80
2018-09-27T04:19:54.335Z,101631.33
2018-09-27T04:22:23.116Z,101630.98
2018-09-27T04:24:51.923Z,101632.88
2018-09-27T04:27:20.778Z,101628.51
2018-09-27T04:29:49.626Z,101629.99
2018-09-27T04:32:18.457Z,101632.21
2018-09-27T04:34:47.283Z,101625.98
2018-09-27T04:37:16.161Z,101630.20
2018-09-27T04:39:45.126Z,101628.88
2018-09-27T04:42:14.045Z,101622.43
2018-09-27T04:44:44.130Z,101624.07
2018-09-27T04:47:12.980Z,101619.56
2018-09-27T04:49:47.410Z,101623.51
2018-09-27T04:52:16.152Z,101621.47
2018-09-27T04:54:45.372Z,101616.91
2018-09-27T04:57:17.081Z,101623.16
2018-09-27T04:59:45.890Z,101621.08
2018-09-27T05:02:14.715Z,101628.23
2018-09-27T05:04:43.579Z,101618.41
2018-09-27T05:07:12.421Z,101629.52
2018-09-27T05:09:41.425Z,101627.16
2018-09-27T05:12:10.379Z,101623.55
2018-09-27T05:14:41.115Z,101620.78
2018-09-27T05:17:10.137Z,101633.43
2018-09-27T05:19:38.949Z,101627.94
2018-09-27T05:22:07.855Z,101634.35
2018-09-27T05:24:36.680Z,101629.78
2018-09-27T05:27:07.765Z,101628.22
2018-09-27T05:29:36.548Z,101625.41
2018-09-27T05:32:05.612Z,101620.76
2018-09-27T05:34:34.423Z,101625.27
2018-09-27T05:37:03.340Z,101626.16
2018-09-27T05:39:32.356Z,101625.89
2018-09-27T05:42:05.897Z,101626.41
2018-09-27T05:44:34.721Z,101628.59
2018-09-27T05:47:03.555Z,101628.78
2018-09-27T05:49:32.441Z,101626.28
2018-09-27T05:52:01.379Z,101632.30
2018-09-27T05:54:30.317Z,101634.73
2018-09-27T05:56:59.575Z,101639.94
2018-09-27T05:59:28.434Z,101639.82
2018-09-27T06:01:57.266Z,101644.04
2018-09-27T06:04:26.077Z,101643.22
2018-09-27T06:06:55.026Z,101646.24
2018-09-27T06:09:23.762Z,101647.22
2018-09-27T06:11:52.752Z,101651.32
2018-09-27T06:14:23.537Z,101647.21
2018-09-27T06:16:52.667Z,101648.75
2018-09-27T06:19:21.581Z,101648.27
2018-09-27T06:21:50.396Z,101651.48
2018-09-27T06:24:19.390Z,101653.94
2018-09-27T06:26:48.279Z,101658.16
2018-09-27T06:29:17.323Z,101660.61
2018-09-27T06:31:49.079Z,101663.17
2018-09-27T06:34:18.028Z,101659.16
2018-09-27T06:36:46.827Z,101660.23
2018-09-27T06:39:15.804Z,101660.13
2018-09-27T06:41:44.726Z,101664.30
2018-09-27T06:44:13.619Z,101664.80
2018-09-27T06:46:42.418Z,101660.08
2018-09-27T06:49:11.692Z,101658.92
2018-09-27T06:51:40.589Z,101660.53
2018-09-27T06:54:09.593Z,101663.89
2018-09-27T06:56:38.430Z,101661.07
2018-09-27T06:59:08.834Z,101664.83
2018-09-27T07:01:37.654Z,101673.30
2018-09-27T07:04:06.567Z,101668.77
2018-09-27T07:06:36.208Z,101668.47
2018-09-27T07:09:07.890Z,101664.24
2018-09-27T07:11:36.736Z,101658.73
2018-09-27T07:14:05.655Z,101657.47
2018-09-27T07:16:34.534Z,101664.77
2018-09-27T07:19:03.391Z,101653.37
2018-09-27T07:21:32.230Z,101649.79
2018-09-27T07:24:01.257Z,101654.92
2018-09-27T07:26:30.126Z,101654.27
2018-09-27T07:31:51.570Z,101665.98
2018-09-27T07:34:20.497Z,101657.03
2018-09-27T07:36:49.446Z,101653.19
2018-09-27T07:39:18.201Z,101654.04
2018-09-27T07:41:47.062Z,101651.27
2018-09-27T07:44:15.789Z,101652.50
2018-09-27T07:46:44.603Z,101648.89
2018-09-27T07:49:15.595Z,101643.09
2018-09-27T07:51:44.511Z,101639.39
2018-09-27T07:54:14.615Z,101638.48
2018-09-27T07:56:43.434Z,101636.93
2018-09-27T07:59:12.344Z,101641.75
2018-09-27T08:01:41.704Z,101637.45
2018-09-27T08:04:10.746Z,101632.12
2018-09-27T08:06:39.596Z,101630.39
2018-09-27T08:09:09.508Z,101631.62
2018-09-27T08:11:38.962Z,101624.28
2018-09-27T08:14:07.841Z,101621.39
2018-09-27T08:16:36.623Z,101617.51
2018-09-27T08:19:05.583Z,101616.87
2018-09-27T08:21:34.480Z,101611.27
2018-09-27T08:24:03.717Z,101611.93
2018-09-27T08:26:32.581Z,101603.49
2018-09-27T08:29:01.351Z,101605.69
2018-09-27T08:31:30.798Z,101606.55
2018-09-27T08:33:59.515Z,101604.39
2018-09-27T08:36:28.492Z,101600.56
2018-09-27T08:38:58.015Z,101595.08
2018-09-27T08:41:26.852Z,101595.84
2018-09-27T08:43:55.921Z,101595.41
2018-09-27T08:46:26.272Z,101598.86
2018-09-27T08:48:55.366Z,101602.81
2018-09-27T08:51:24.282Z,101595.58
2018-09-27T08:53:53.193Z,101591.75
2018-09-27T08:56:22.514Z,101598.17
2018-09-27T08:58:51.314Z,101587.61
2018-09-27T09:01:20.941Z,101586.15
2018-09-27T09:03:50.635Z,101588.52
2018-09-27T09:06:19.431Z,101587.40
2018-09-27T09:08:48.602Z,101593.11
2018-09-27T09:11:17.490Z,101590.53
2018-09-27T09:13:46.254Z,101581.65
2018-09-27T09:16:15.192Z,101580.48
2018-09-27T09:18:44.030Z,101582.41
2018-09-27T09:21:12.890Z,101572.86
2018-09-27T09:23:41.755Z,101575.38
2018-09-27T09:26:10.696Z,101571.03
2018-09-27T09:28:39.857Z,101571.69
2018-09-27T09:31:08.667Z,101567.66
2018-09-27T09:33:37.581Z,101569.10
2018-09-27T09:36:06.539Z,101569.58
2018-09-27T09:38:35.454Z,101571.42
2018-09-27T09:41:04.280Z,101558.25
2018-09-27T09:43:33.128Z,101552.83
2018-09-27T09:46:02.055Z,101550.27
2018-09-27T09:48:30.999Z,101547.22
2018-09-27T09:50:59.787Z,101542.66
2018-09-27T09:53:28.765Z,101542.14
2018-09-27T09:55:57.557Z,101529.26
2018-09-27T09:58:26.354Z,101528.66
2018-09-27T10:00:55.175Z,101532.73
2018-09-27T10:03:27.871Z,101516.56
2018-09-27T10:05:56.729Z,101530.10
2018-09-27T10:08:25.594Z,101529.08
2018-09-27T10:10:54.578Z,101524.92
2018-09-27T10:13:23.350Z,101516.11
2018-09-27T10:15:52.743Z,101523.30
2018-09-27T10:18:21.600Z,101508.95
2018-09-27T10:20:50.396Z,101501.53
2018-09-27T10:23:19.193Z,101494.77
2018-09-27T10:25:47.990Z,101500.33
2018-09-27T10:28:17.107Z,101501.52
2018-09-27T10:30:46.023Z,101493.52
2018-09-27T10:33:14.925Z,101486.94
2018-09-27T10:35:43.839Z,101487.37
2018-09-27T10:38:20.033Z,101480.12
2018-09-27T10:40:57.125Z,101480.86
2018-09-27T10:43:26.902Z,101484.31
2018-09-27T10:45:56.345Z,101479.48
2018-09-27T10:48:25.838Z,101481.20
2018-09-27T10:50:54.722Z,101475.95
2018-09-27T10:53:23.602Z,101473.88
2018-09-27T10:55:54.023Z,101476.03
2018-09-27T10:58:23.291Z,101469.45
2018-09-27T11:00:52.220Z,101465.89
2018-09-27T11:03:21.279Z,101450.67
2018-09-27T11:05:50.236Z,101452.72
2018-09-27T11:08:19.060Z,101440.36
2018-09-27T11:10:48.273Z,101448.36
2018-09-27T11:13:17.107Z,101438.08
2018-09-27T11:15:45.845Z,101441.39
2018-09-27T11:18:14.771Z,101435.25
2018-09-27T11:20:47.578Z,101434.61
2018-09-27T11:23:16.805Z,101433.58
2018-09-27T11:25:45.738Z,101429.73
2018-09-27T11:28:14.705Z,101415.64
2018-09-27T11:30:44.422Z,101418.70
2018-09-27T11:33:14.415Z,101417.59
2018-09-27T11:35:45.107Z,101404.59
2018-09-27T11:38:14.014Z,101412.96
2018-09-27T11:40:42.851Z,101400.46
2018-09-27T11:43:12.048Z,101395.28
2018-09-27T11:45:40.968Z,101391.97
2018-09-27T11:48:10.433Z,101386.70
2018-09-27T11:50:39.413Z,101366.03
2018-09-27T11:53:08.488Z,101383.02
2018-09-27T11:55:37.462Z,101368.64
2018-09-27T11:58:06.480Z,101371.98
2018-09-27T12:00:35.553Z,101367.61
2018-09-27T12:03:04.472Z,101361.22
2018-09-27T12:05:33.335Z,101361.45
2018-09-27T12:08:03.148Z,101357.08
2018-09-27T12:10:32.047Z,101352.94
2018-09-27T12:13:01.553Z,101351.55
2018-09-27T12:15:30.430Z,101344.12
2018-09-27T12:17:59.377Z,101335.88
2018-09-27T12:20:28.299Z,101327.83
2018-09-27T12:22:57.368Z,101323.25
2018-09-27T12:25:26.375Z,101319.99
2018-09-27T12:27:55.338Z,101318.56
2018-09-27T12:30:24.197Z,101315.70
2018-09-27T12:32:53.137Z,101312.85
2018-09-27T12:35:22.059Z,101300.63
2018-09-27T12:37:56.989Z,101296.09
2018-09-27T12:40:25.801Z,101297.91
2018-09-27T12:42:54.762Z,101280.83
2018-09-27T12:45:23.665Z,101291.39
2018-09-27T12:47:52.503Z,101284.55
2018-09-27T12:50:21.482Z,101277.34
2018-09-27T12:52:50.720Z,101269.86
2018-09-27T12:55:21.047Z,101267.66
2018-09-27T12:57:51.288Z,101267.80
2018-09-27T13:00:21.134Z,101260.70
2018-09-27T13:02:50.757Z,101257.59
2018-09-27T13:05:19.624Z,101252.41
2018-09-27T13:07:49.189Z,101246.02
2018-09-27T13:10:18.179Z,101244.88
2018-09-27T13:12:47.008Z,101240.31
2018-09-27T13:15:15.840Z,101240.34
2018-09-27T13:17:44.722Z,101237.55
2018-09-27T13:20:13.545Z,101230.66
2018-09-27T13:22:42.533Z,101229.97
2018-09-27T13:25:11.694Z,101224.83
2018-09-27T13:27:40.484Z,101215.60
2018-09-27T13:30:09.376Z,101216.95
2018-09-27T13:32:38.272Z,101208.36
2018-09-27T13:35:07.607Z,101197.95
2018-09-27T13:37:36.500Z,101200.36
2018-09-27T13:40:05.589Z,101185.67
2018-09-27T13:42:34.430Z,101194.25
2018-09-27T13:45:03.331Z,101186.20
2018-09-27T13:47:34.067Z,101177.53
2018-09-27T13:50:02.943Z,101175.67
2018-09-27T13:52:32.201Z,101167.27
2018-09-27T13:55:03.664Z,101187.00
2018-09-27T13:57:33.458Z,101170.41
2018-09-27T14:00:02.371Z,101167.16
2018-09-27T14:02:31.183Z,101165.09
2018-09-27T14:05:00.649Z,101154.16
2018-09-27T14:07:31.644Z,101155.22
2018-09-27T14:10:00.838Z,101146.09
2018-09-27T14:12:32.115Z,101147.08
2018-09-27T14:15:00.959Z,101139.05
2018-09-27T14:17:29.907Z,101131.03
2018-09-27T14:19:58.769Z,101128.16
2018-09-27T14:22:31.303Z,101124.56
2018-09-27T14:25:00.166Z,101122.57
2018-09-27T14:27:29.052Z,101112.77
2018-09-27T14:29:57.906Z,101112.89
2018-09-27T14:32:26.847Z,101111.61
2018-09-27T14:34:55.789Z,101109.22
2018-09-27T14:37:24.823Z,101103.02
2018-09-27T14:39:58.547Z,101095.30
2018-09-27T14:42:27.453Z,101089.30
2018-09-27T14:44:56.508Z,101086.75
2018-09-27T14:47:25.391Z,101081.16
2018-09-27T14:49:54.268Z,101081.41
2018-09-27T14:52:23.046Z,101074.51
2018-09-27T14:54:51.911Z,101072.84
2018-09-27T14:57:20.974Z,101064.25
2018-09-27T14:59:58.635Z,101065.45
2018-09-27T15:02:27.528Z,101059.42
2018-09-27T15:04:56.318Z,101061.08
2018-09-27T15:07:25.548Z,101060.75
2018-09-27T15:12:55.305Z,101054.75
2018-09-27T15:15:26.205Z,101048.42
2018-09-27T15:17:56.010Z,101048.89
2018-09-27T15:20:26.355Z,101045.85
2018-09-27T15:22:55.361Z,101047.04
2018-09-27T15:25:25.677Z,101041.52
2018-09-27T15:27:54.547Z,101038.03
2018-09-27T15:30:23.957Z,101027.44
2018-09-27T15:32:53.763Z,101030.67
2018-09-27T15:35:24.529Z,101028.69
2018-09-27T15:37:54.216Z,101021.27
2018-09-27T15:40:23.423Z,101015.30
2018-09-27T15:42:52.955Z,101014.39
2018-09-27T15:45:24.531Z,101014.97
2018-09-27T15:47:53.442Z,101008.72
2018-09-27T15:50:22.679Z,101000.58
2018-09-27T15:52:52.052Z,100997.16
2018-09-27T15:55:22.363Z,100996.70
2018-09-27T15:57:51.466Z,100982.69
2018-09-27T16:00:21.301Z,100981.48
2018-09-27T16:02:50.281Z,100977.60
2018-09-27T16:05:19.334Z,100972.95
2018-09-27T16:07:48.374Z,100968.45
2018-09-27T16:10:18.128Z,100969.80
2018-09-27T16:12:47.544Z,100966.84
2018-09-27T16:15:16.474Z,100959.02
2018-09-27T16:17:45.528Z,100956.06
2018-09-27T16:20:14.398Z,100949.02
2018-09-27T16:22:43.338Z,100947.55
2018-09-27T16:25:14.912Z,100946.20
2018-09-27T16:27:46.173Z,100944.72
2018-09-27T16:30:15.214Z,100942.95
2018-09-27T16:32:46.239Z,100936.13
2018-09-27T16:35:24.173Z,100934.47
2018-09-27T16:37:53.152Z,100932.51
2018-09-27T16:40:22.071Z,100923.67
2018-09-27T16:42:50.899Z,100922.34
2018-09-27T16:45:19.763Z,100919.83
2018-09-27T16:47:48.642Z,100922.92
2018-09-27T16:50:17.538Z,100912.20
2018-09-27T16:52:46.419Z,100919.17
2018-09-27T16:55:15.218Z,100913.95
2018-09-27T16:57:44.187Z,100905.98
2018-09-27T17:00:13.067Z,100910.57
2018-09-27T17:02:42.047Z,100909.95
2018-09-27T17:05:10.919Z,100906.67
2018-09-27T17:07:39.886Z,100905.09
2018-09-27T17:10:09.623Z,100897.80
2018-09-27T17:12:39.231Z,100897.17
2018-09-27T17:15:08.455Z,100891.16
2018-09-27T17:17:37.313Z,100890.53
2018-09-27T17:20:06.301Z,100887.19
2018-09-27T17:22:35.615Z,100882.81
2018-09-27T17:25:04.602Z,100884.52
2018-09-27T17:27:33.554Z,100882.13
2018-09-27T17:30:02.629Z,100882.45
2018-09-27T17:32:31.552Z,100883.80
2018-09-27T17:35:00.437Z,100875.73
2018-09-27T17:37:29.360Z,100879.75
2018-09-27T17:39:58.342Z,100881.06
2018-09-27T17:42:28.633Z,100882.67
2018-09-27T17:44:59.215Z,100880.31
2018-09-27T17:47:28.144Z,100890.27
2018-09-27T17:49:57.127Z,100888.25
2018-09-27T17:52:26.075Z,100888.36
2018-09-27T17:54:54.885Z,100889.67
2018-09-27T17:57:24.493Z,100885.09
2018-09-27T17:59:54.976Z,100888.77
2018-09-27T18:02:26.077Z,100889.67
2018-09-27T18:04:55.120Z,100884.06
2018-09-27T18:07:24.616Z,100882.13
2018-09-27T18:09:53.553Z,100879.53
2018-09-27T18:12:22.499Z,100883.63
2018-09-27T18:14:51.262Z,100878.17
2018-09-27T18:17:21.915Z,100883.09
2018-09-27T18:19:50.860Z,100878.11
2018-09-27T18:22:19.685Z,100878.84
2018-09-27T18:24:48.471Z,100879.64
2018-09-27T18:27:17.406Z,100878.03
2018-09-27T18:29:46.307Z,100879.26
2018-09-27T18:32:15.180Z,100872.47
2018-09-27T18:34:44.761Z,100873.75
2018-09-27T18:37:13.644Z,100871.30
2018-09-27T18:39:42.442Z,100872.03
2018-09-27T18:42:11.381Z,100869.77
2018-09-27T18:44:42.096Z,100865.84
2018-09-27T18:47:11.464Z,100864.97
2018-09-27T18:49:40.268Z,100868.06
2018-09-27T18:52:09.269Z,100865.06
2018-09-27T18:54:38.140Z,100866.55
2018-09-27T18:57:07.113Z,100866.55
2018-09-27T18:59:36.036Z,100860.20
2018-09-27T19:02:05.598Z,100857.65
2018-09-27T19:04:34.459Z,100852.33
2018-09-27T19:07:03.380Z,100852.30
2018-09-27T19:09:33.772Z,100854.98
2018-09-27T19:12:02.746Z,100843.34
2018-09-27T19:14:31.701Z,100846.94
2018-09-27T19:17:00.782Z,100848.17
2018-09-27T19:19:30.162Z,100852.95
2018-09-27T19:21:59.842Z,100848.99
2018-09-27T19:24:28.726Z,100842.35
2018-09-27T19:26:57.683Z,100845.62
2018-09-27T19:29:26.500Z,100833.00
2018-09-27T19:31:55.347Z,100830.80
2018-09-27T19:34:24.321Z,100824.34
2018-09-27T19:36:54.172Z,100829.81
2018-09-27T19:39:23.170Z,100818.78
2018-09-27T19:41:52.169Z,100826.23
2018-09-27T19:44:21.661Z,100826.86
2018-09-27T19:46:51.458Z,100821.86
2018-09-27T19:49:20.754Z,100823.84
2018-09-27T19:51:50.631Z,100823.52
2018-09-27T19:54:19.766Z,100821.44
2018-09-27T19:56:49.316Z,100820.37
2018-09-27T19:59:29.028Z,100814.22
2018-09-27T20:01:58.395Z,100812.25
2018-09-27T20:04:27.339Z,100808.55
2018-09-27T20:06:56.252Z,100804.62
2018-09-27T20:09:26.941Z,100808.98
2018-09-27T20:11:56.950Z,100806.25
2018-09-27T20:14:32.128Z,100804.98
2018-09-27T20:17:01.686Z,100812.09
2018-09-27T20:19:33.491Z,100806.11
2018-09-27T20:22:03.028Z,100811.47
2018-09-27T20:24:32.635Z,100807.09
2018-09-27T20:27:01.567Z,100810.63
2018-09-27T20:29:30.703Z,100812.45
2018-09-27T20:31:59.725Z,100816.16
2018-09-27T20:34:29.295Z,100815.31
2018-09-27T20:36:58.214Z,100808.78
2018-09-27T20:39:27.075Z,100807.22
2018-09-27T20:41:56.456Z,100810.31
2018-09-27T20:44:25.520Z,100812.48
2018-09-27T20:46:54.500Z,100809.29
2018-09-27T20:49:23.374Z,100810.09
2018-09-27T20:51:52.382Z,100809.41
2018-09-27T20:54:22.244Z,100806.11
2018-09-27T20:56:51.013Z,100798.64
2018-09-27T20:59:20.194Z,100795.41
2018-09-27T21:01:50.442Z,100793.25
2018-09-27T21:04:19.552Z,100785.45
2018-09-27T21:06:48.628Z,100787.22
2018-09-27T21:09:17.783Z,100781.94
2018-09-27T21:11:47.432Z,100779.44
2018-09-27T21:14:16.251Z,100777.05
2018-09-27T21:16:45.055Z,100778.16
2018-09-27T21:19:14.044Z,100781.70
2018-09-27T21:21:42.906Z,100773.63
2018-09-27T21:24:11.872Z,100770.73
2018-09-27T21:26:40.698Z,100773.02
2018-09-27T21:29:09.788Z,100768.86
2018-09-27T21:31:38.662Z,100768.52
2018-09-27T21:36:58.895Z,100761.77
2018-09-27T21:39:27.826Z,100756.74
2018-09-27T21:41:56.598Z,100753.77
2018-09-27T21:44:25.463Z,100757.67
2018-09-27T21:46:54.316Z,100757.20
2018-09-27T21:49:23.410Z,100753.04
2018-09-27T21:51:52.757Z,100753.06
2018-09-27T21:54:21.820Z,100752.95
2018-09-27T21:56:51.306Z,100751.62
2018-09-27T21:59:21.359Z,100753.93
2018-09-27T22:01:50.906Z,100751.62
2018-09-27T22:04:19.903Z,100753.32
2018-09-27T22:06:49.784Z,100759.09
2018-09-27T22:09:19.080Z,100753.89
2018-09-27T22:11:49.154Z,100749.02
2018-09-27T22:14:17.965Z,100752.43
2018-09-27T22:16:46.785Z,100740.95
2018-09-27T22:19:15.521Z,100736.64
2018-09-27T22:21:44.349Z,100740.08
2018-09-27T22:24:13.636Z,100741.92
2018-09-27T22:26:42.502Z,100734.11
2018-09-27T22:29:11.305Z,100737.64
2018-09-27T22:31:40.179Z,100726.88
2018-09-27T22:34:09.025Z,100728.34
2018-09-27T22:36:37.862Z,100729.42
2018-09-27T22:39:07.937Z,100725.05
2018-09-27T22:41:38.201Z,100726.34
2018-09-27T22:44:07.108Z,100723.65
2018-09-27T22:46:35.892Z,100724.86
2018-09-27T22:49:05.370Z,100720.57
2018-09-27T22:51:40.377Z,100723.36
2018-09-27T22:54:09.756Z,100719.03
2018-09-27T22:56:38.587Z,100713.61
2018-09-27T22:59:07.417Z,100715.94
2018-09-27T23:01:36.214Z,100714.28
2018-09-27T23:04:05.114Z,100714.06
2018-09-27T23:06:34.259Z,100714.20
2018-09-27T23:09:03.171Z,100709.28
2018-09-27T23:11:33.045Z,100707.09
2018-09-27T23:14:03.624Z,100705.42
2018-09-27T23:16:32.463Z,100701.81
2018-09-27T23:19:01.959Z,100702.31
2018-09-27T23:21:30.733Z,100701.11
2018-09-27T23:23:59.544Z,100696.41
2018-09-27T23:26:28.801Z,100692.80
2018-09-27T23:28:57.685Z,100702.90
2018-09-27T23:31:26.998Z,100699.98
2018-09-27T23:33:55.909Z,100704.39
2018-09-27T23:36:24.821Z,100709.64
2018-09-27T23:38:53.737Z,100707.19
2018-09-27T23:41:34.820Z,100700.17
2018-09-27T23:44:03.561Z,100708.30
2018-09-27T23:46:32.310Z,100709.41
2018-09-27T23:49:01.195Z,100711.01
2018-09-27T23:51:30.275Z,100708.63
2018-09-27T23:53:59.163Z,100706.69
2018-09-27T23:56:28.286Z,100706.91
2018-09-27T23:58:57.194Z,100703.60
